createdAt,value
2023-05-05T00:01:02.170Z,100756.93
2023-05-05T00:03:30.020Z,100757.42
2023-05-05T00:05:57.941Z,100753.89
2023-05-05T00:08:25.659Z,100750.18
2023-05-05T00:10:53.584Z,100742.79
2023-05-05T00:13:21.876Z,100736.29
2023-05-05T00:15:51.226Z,100739.37
2023-05-05T00:18:19.821Z,100746.57
2023-05-05T00:20:47.797Z,100745.95
2023-05-05T00:23:16.187Z,100752.73
2023-05-05T00:25:43.865Z,100756.45
2023-05-05T00:28:13.869Z,100755.27
2023-05-05T00:30:41.666Z,100758.65
2023-05-05T00:33:11.061Z,100756.85
2023-05-05T00:35:38.794Z,100758.05
2023-05-05T00:38:06.963Z,100754.30
2023-05-05T00:40:34.734Z,100758.33
2023-05-05T00:43:02.784Z,100757.70
2023-05-05T00:45:30.758Z,100756.89
2023-05-05T00:47:59.754Z,100756.10
2023-05-05T00:50:30.166Z,100758.65
2023-05-05T00:53:01.474Z,100761.73
2023-05-05T00:55:34.038Z,100758.20
2023-05-05T00:58:05.707Z,100757.46
2023-05-05T01:00:34.399Z,100750.02
2023-05-05T01:03:02.129Z,100750.76
2023-05-05T01:05:42.206Z,100753.67
2023-05-05T01:08:22.166Z,100757.30
2023-05-05T01:10:57.923Z,100760.59
2023-05-05T01:13:48.424Z,100761.04
2023-05-05T01:16:23.822Z,100758.05
2023-05-05T01:19:04.185Z,100758.16
2023-05-05T01:21:37.714Z,100756.84
2023-05-05T01:24:28.394Z,100756.51
2023-05-05T01:27:28.255Z,100757.79
2023-05-05T01:30:03.671Z,100759.69
2023-05-05T01:32:41.723Z,100760.75
2023-05-05T01:35:33.376Z,100761.94
2023-05-05T01:38:07.193Z,100762.80
2023-05-05T01:40:43.464Z,100766.22
2023-05-05T01:43:13.287Z,100764.17
2023-05-05T01:45:43.618Z,100763.72
2023-05-05T01:48:12.616Z,100761.91
2023-05-05T01:50:42.226Z,100761.91
2023-05-05T01:53:11.467Z,100760.83
2023-05-05T01:55:40.533Z,100760.88
2023-05-05T01:58:10.935Z,100762.27
2023-05-05T02:00:39.128Z,100768.15
2023-05-05T02:03:11.015Z,100767.73
2023-05-05T02:05:40.424Z,100767.56
2023-05-05T02:08:09.875Z,100762.59
2023-05-05T02:10:42.781Z,100758.71
2023-05-05T02:13:12.841Z,100759.05
2023-05-05T02:15:43.508Z,100759.60
2023-05-05T02:18:12.322Z,100758.61
2023-05-05T02:20:40.932Z,100763.83
2023-05-05T02:23:08.944Z,100761.55
2023-05-05T02:25:49.010Z,100760.81
2023-05-05T02:28:24.472Z,100765.52
2023-05-05T02:30:57.664Z,100762.02
2023-05-05T02:33:26.854Z,100759.17
2023-05-05T02:35:56.964Z,100763.66
2023-05-05T02:38:29.286Z,100762.05
2023-05-05T02:41:03.067Z,100760.93
2023-05-05T02:43:33.000Z,100762.63
2023-05-05T02:46:00.990Z,100764.21
2023-05-05T02:48:29.665Z,100763.64
2023-05-05T02:50:59.525Z,100766.14
2023-05-05T02:53:32.439Z,100771.92
2023-05-05T02:56:10.182Z,100773.38
2023-05-05T02:58:54.387Z,100777.91
2023-05-05T03:01:29.094Z,100773.34
2023-05-05T03:04:06.822Z,100767.09
2023-05-05T03:06:42.396Z,100767.24
2023-05-05T03:09:15.654Z,100768.59
2023-05-05T03:11:56.863Z,100772.55
2023-05-05T03:14:27.571Z,100774.36
2023-05-05T03:16:56.605Z,100774.46
2023-05-05T03:19:26.160Z,100777.77
2023-05-05T03:21:55.484Z,100781.34
2023-05-05T03:24:23.235Z,100780.39
2023-05-05T03:27:17.585Z,100786.14
2023-05-05T03:29:45.287Z,100788.41
2023-05-05T03:32:15.097Z,100791.08
2023-05-05T03:34:43.329Z,100789.92
2023-05-05T03:37:10.958Z,100787.70
2023-05-05T03:39:39.356Z,100788.04
2023-05-05T03:42:07.582Z,100790.41
2023-05-05T03:44:35.831Z,100797.83
2023-05-05T03:47:03.467Z,100795.64
2023-05-05T03:49:32.422Z,100794.05
2023-05-05T03:52:00.139Z,100799.30
2023-05-05T03:54:28.137Z,100804.45
2023-05-05T03:56:56.267Z,100810.82
2023-05-05T03:59:23.928Z,100808.72
2023-05-05T04:01:51.724Z,100812.87
2023-05-05T04:04:19.424Z,100814.45
2023-05-05T04:06:47.240Z,100818.73
2023-05-05T04:09:15.316Z,100823.29
2023-05-05T04:11:43.281Z,100825.25
2023-05-05T04:14:11.408Z,100828.95
2023-05-05T04:16:40.023Z,100830.45
2023-05-05T04:19:08.638Z,100832.37
2023-05-05T04:21:36.378Z,100836.30
2023-05-05T04:24:05.458Z,100837.99
2023-05-05T04:26:33.102Z,100840.17
2023-05-05T04:29:01.205Z,100838.42
2023-05-05T04:31:29.129Z,100845.29
2023-05-05T04:33:56.901Z,100848.70
2023-05-05T04:36:24.909Z,100848.89
2023-05-05T04:38:52.874Z,100851.60
2023-05-05T04:41:21.263Z,100851.34
2023-05-05T04:43:48.979Z,100854.86
2023-05-05T04:46:16.820Z,100856.02
2023-05-05T04:48:44.450Z,100861.77
2023-05-05T04:51:12.882Z,100863.83
2023-05-05T04:53:41.498Z,100866.39
2023-05-05T04:56:09.290Z,100869.77
2023-05-05T04:58:37.065Z,100873.86
2023-05-05T05:01:04.860Z,100873.13
2023-05-05T05:03:32.657Z,100877.37
2023-05-05T05:06:00.437Z,100880.92
2023-05-05T05:08:28.315Z,100883.99
2023-05-05T05:10:55.974Z,100888.33
2023-05-05T05:13:23.800Z,100890.39
2023-05-05T05:15:52.076Z,100890.60
2023-05-05T05:18:19.845Z,100899.50
2023-05-05T05:20:47.711Z,100899.64
2023-05-05T05:23:15.932Z,100899.92
2023-05-05T05:25:44.396Z,100901.23
2023-05-05T05:28:12.263Z,100909.55
2023-05-05T05:30:44.380Z,100909.16
2023-05-05T05:33:12.341Z,100907.05
2023-05-05T05:35:40.464Z,100908.54
2023-05-05T05:38:08.438Z,100909.12
2023-05-05T05:40:36.437Z,100914.86
2023-05-05T05:43:04.396Z,100917.00
2023-05-05T05:45:32.990Z,100915.72
2023-05-05T05:48:00.680Z,100919.55
2023-05-05T05:50:28.621Z,100916.58
2023-05-05T05:52:57.113Z,100914.81
2023-05-05T05:55:25.071Z,100919.46
2023-05-05T05:57:53.560Z,100919.88
2023-05-05T06:00:21.923Z,100923.05
2023-05-05T06:02:52.747Z,100925.31
2023-05-05T06:05:22.523Z,100926.92
2023-05-05T06:07:51.604Z,100927.30
2023-05-05T06:10:28.012Z,100930.91
2023-05-05T06:13:01.772Z,100934.94
2023-05-05T06:15:29.920Z,100939.30
2023-05-05T06:17:58.065Z,100942.02
2023-05-05T06:20:26.078Z,100944.57
2023-05-05T06:22:53.694Z,100945.02
2023-05-05T06:25:21.945Z,100947.58
2023-05-05T06:27:49.936Z,100952.32
2023-05-05T06:30:17.737Z,100958.10
2023-05-05T06:32:45.557Z,100955.50
2023-05-05T06:35:13.172Z,100955.88
2023-05-05T06:37:41.065Z,100961.89
2023-05-05T06:40:10.268Z,100965.73
2023-05-05T06:42:38.170Z,100970.30
2023-05-05T06:45:09.010Z,100972.89
2023-05-05T06:47:36.989Z,100974.58
2023-05-05T06:50:06.003Z,100975.17
2023-05-05T06:52:33.820Z,100981.33
2023-05-05T06:55:01.550Z,100985.64
2023-05-05T06:57:29.285Z,100986.10
2023-05-05T06:59:56.947Z,100987.55
2023-05-05T07:02:26.706Z,100989.92
2023-05-05T07:04:55.520Z,100991.66
2023-05-05T07:07:23.541Z,100990.49
2023-05-05T07:09:51.250Z,100994.31
2023-05-05T07:12:18.840Z,100993.69
2023-05-05T07:14:46.996Z,100989.81
2023-05-05T07:17:14.738Z,100992.75
2023-05-05T07:19:43.019Z,100991.26
2023-05-05T07:22:10.658Z,100992.54
2023-05-05T07:24:38.241Z,100993.80
2023-05-05T07:27:06.905Z,100994.80
2023-05-05T07:29:38.614Z,100997.63
2023-05-05T07:32:06.419Z,100996.44
2023-05-05T07:34:34.715Z,100997.29
2023-05-05T07:37:03.400Z,100998.86
2023-05-05T07:39:31.174Z,100998.21
2023-05-05T07:42:02.380Z,101003.29
2023-05-05T07:44:30.397Z,101003.14
2023-05-05T07:46:58.072Z,101001.63
2023-05-05T07:49:26.852Z,101003.79
2023-05-05T07:51:55.349Z,101002.86
2023-05-05T07:54:23.052Z,101004.26
2023-05-05T07:56:50.793Z,101008.94
2023-05-05T07:59:18.491Z,101011.04
2023-05-05T08:01:46.131Z,101009.58
2023-05-05T08:04:13.908Z,101010.36
2023-05-05T08:06:41.693Z,101015.13
2023-05-05T08:09:09.419Z,101017.95
2023-05-05T08:11:37.300Z,101022.10
2023-05-05T08:14:05.592Z,101023.13
2023-05-05T08:16:34.736Z,101026.73
2023-05-05T08:19:02.841Z,101027.80
2023-05-05T08:21:31.609Z,101029.09
2023-05-05T08:24:00.574Z,101029.19
2023-05-05T08:26:31.394Z,101033.25
2023-05-05T08:29:00.743Z,101029.28
2023-05-05T08:31:32.329Z,101028.70
2023-05-05T08:34:00.051Z,101031.63
2023-05-05T08:36:28.889Z,101033.63
2023-05-05T08:38:56.981Z,101033.36
2023-05-05T08:41:25.221Z,101034.86
2023-05-05T08:43:53.004Z,101033.70
2023-05-05T08:46:21.044Z,101032.15
2023-05-05T08:48:49.474Z,101033.16
2023-05-05T08:51:21.641Z,101034.21
2023-05-05T08:53:55.687Z,101032.66
2023-05-05T08:56:27.331Z,101035.34
2023-05-05T08:58:56.568Z,101033.97
2023-05-05T09:01:24.326Z,101036.16
2023-05-05T09:03:53.201Z,101035.77
2023-05-05T09:06:22.132Z,101033.88
2023-05-05T09:08:50.437Z,101033.92
2023-05-05T09:11:18.182Z,101028.09
2023-05-05T09:13:47.397Z,101031.45
2023-05-05T09:16:15.123Z,101030.11
2023-05-05T09:18:42.939Z,101032.84
2023-05-05T09:21:27.737Z,101030.09
2023-05-05T09:24:10.351Z,101030.77
2023-05-05T09:26:41.346Z,101029.62
2023-05-05T09:29:09.217Z,101021.95
2023-05-05T09:31:39.037Z,101022.85
2023-05-05T09:34:16.777Z,101018.27
2023-05-05T09:36:48.761Z,101019.23
2023-05-05T09:39:20.597Z,101015.99
2023-05-05T09:41:48.574Z,101013.51
2023-05-05T09:44:16.418Z,101011.85
2023-05-05T09:46:52.607Z,101020.10
2023-05-05T09:49:26.542Z,101010.69
2023-05-05T09:51:55.069Z,101015.08
2023-05-05T09:54:30.376Z,101015.83
2023-05-05T09:56:58.496Z,101016.13
2023-05-05T09:59:31.084Z,101015.74
2023-05-05T10:02:41.995Z,101014.48
2023-05-05T10:05:17.905Z,101012.27
2023-05-05T10:07:47.597Z,101010.72
2023-05-05T10:10:17.274Z,101016.39
2023-05-05T10:12:49.527Z,101014.23
2023-05-05T10:15:18.238Z,101013.15
2023-05-05T10:20:22.059Z,101006.42
2023-05-05T10:22:57.286Z,101004.30
2023-05-05T10:25:39.122Z,101001.27
2023-05-05T10:28:14.378Z,101000.15
2023-05-05T10:30:46.920Z,100998.66
2023-05-05T10:33:31.708Z,101004.04
2023-05-05T10:36:03.401Z,100999.10
2023-05-05T10:38:32.062Z,101002.69
2023-05-05T10:41:01.357Z,101000.52
2023-05-05T10:43:31.377Z,100998.60
2023-05-05T10:45:59.704Z,100996.78
2023-05-05T10:48:33.442Z,100993.55
2023-05-05T10:51:39.859Z,100989.80
2023-05-05T10:54:12.485Z,100988.84
2023-05-05T10:56:42.021Z,100988.97
2023-05-05T10:59:41.863Z,100989.02
2023-05-05T11:02:27.949Z,100989.11
2023-05-05T11:05:21.480Z,100982.59
2023-05-05T11:07:52.414Z,100975.77
2023-05-05T11:10:21.227Z,100979.55
2023-05-05T11:12:52.241Z,100978.56
2023-05-05T11:15:26.286Z,100970.38
2023-05-05T11:17:55.613Z,100973.18
2023-05-05T11:20:48.850Z,100967.36
2023-05-05T11:23:20.094Z,100963.39
2023-05-05T11:25:51.550Z,100960.20
2023-05-05T11:28:25.567Z,100958.90
2023-05-05T11:30:59.440Z,100962.39
2023-05-05T11:33:31.820Z,100964.23
2023-05-05T11:36:04.154Z,100959.63
2023-05-05T11:38:38.884Z,100955.38
2023-05-05T11:41:40.498Z,100951.64
2023-05-05T11:44:12.973Z,100950.83
2023-05-05T11:47:01.520Z,100944.77
2023-05-05T11:49:29.094Z,100940.83
2023-05-05T11:51:57.799Z,100942.66
2023-05-05T11:54:26.249Z,100943.61
2023-05-05T11:56:55.448Z,100939.25
2023-05-05T11:59:23.130Z,100938.45
2023-05-05T12:01:51.270Z,100935.55
2023-05-05T12:04:19.340Z,100938.19
2023-05-05T12:06:48.860Z,100930.57
2023-05-05T12:09:20.837Z,100937.23
2023-05-05T12:11:56.384Z,100933.27
2023-05-05T12:14:25.383Z,100929.79
2023-05-05T12:17:04.300Z,100929.96
2023-05-05T12:19:33.536Z,100932.33
2023-05-05T12:22:02.879Z,100928.23
2023-05-05T12:24:30.889Z,100927.56
2023-05-05T12:27:14.511Z,100929.24
2023-05-05T12:29:42.178Z,100929.70
2023-05-05T12:32:22.614Z,100925.67
2023-05-05T12:34:54.341Z,100924.06
2023-05-05T12:37:23.249Z,100925.96
2023-05-05T12:39:51.878Z,100919.98
2023-05-05T12:42:19.639Z,100920.83
2023-05-05T12:44:49.063Z,100919.23
2023-05-05T12:47:32.459Z,100912.76
2023-05-05T12:50:02.927Z,100915.05
2023-05-05T12:52:46.653Z,100910.33
2023-05-05T12:55:14.280Z,100910.48
2023-05-05T12:58:00.314Z,100907.77
2023-05-05T13:00:29.089Z,100904.06
2023-05-05T13:02:57.077Z,100899.89
2023-05-05T13:05:41.125Z,100897.88
2023-05-05T13:08:08.812Z,100892.92
2023-05-05T13:10:37.258Z,100881.75
2023-05-05T13:13:04.862Z,100878.58
2023-05-05T13:15:33.451Z,100881.41
2023-05-05T13:18:01.529Z,100878.98
2023-05-05T13:20:29.908Z,100875.52
2023-05-05T13:22:57.622Z,100876.59
2023-05-05T13:25:25.214Z,100875.09
2023-05-05T13:27:52.885Z,100868.18
2023-05-05T13:30:20.685Z,100864.63
2023-05-05T13:32:48.391Z,100868.59
2023-05-05T13:35:17.104Z,100866.96
2023-05-05T13:37:46.555Z,100858.35
2023-05-05T13:40:14.266Z,100855.02
2023-05-05T13:42:41.854Z,100854.81
2023-05-05T13:45:10.166Z,100846.84
2023-05-05T13:47:38.282Z,100838.77
2023-05-05T13:50:07.596Z,100837.67
2023-05-05T13:52:35.170Z,100826.55
2023-05-05T13:55:02.880Z,100823.89
2023-05-05T13:57:30.520Z,100812.55
2023-05-05T13:59:58.131Z,100807.93
2023-05-05T14:02:25.965Z,100803.86
2023-05-05T14:04:53.597Z,100799.31
2023-05-05T14:07:21.359Z,100803.29
2023-05-05T14:09:48.956Z,100799.08
2023-05-05T14:12:16.608Z,100799.27
2023-05-05T14:14:44.269Z,100795.34
2023-05-05T14:17:12.774Z,100793.01
2023-05-05T14:19:40.419Z,100792.83
2023-05-05T14:22:08.017Z,100790.71
2023-05-05T14:24:35.716Z,100784.90
2023-05-05T14:27:04.699Z,100777.33
2023-05-05T14:29:32.591Z,100772.72
2023-05-05T14:32:00.556Z,100778.98
2023-05-05T14:34:28.492Z,100778.63
2023-05-05T14:36:57.138Z,100775.38
2023-05-05T14:39:24.913Z,100771.19
2023-05-05T14:41:52.623Z,100769.30
2023-05-05T14:44:20.536Z,100765.13
2023-05-05T14:46:50.961Z,100766.87
2023-05-05T14:49:18.863Z,100765.27
2023-05-05T14:51:46.482Z,100770.52
2023-05-05T14:54:24.547Z,100771.96
2023-05-05T14:56:56.570Z,100768.52
2023-05-05T14:59:24.357Z,100769.19
2023-05-05T15:01:52.046Z,100763.74
2023-05-05T15:04:19.760Z,100767.61
2023-05-05T15:06:47.403Z,100766.73
2023-05-05T15:09:15.005Z,100764.96
2023-05-05T15:11:42.998Z,100762.02
2023-05-05T15:14:11.027Z,100757.85
2023-05-05T15:16:38.714Z,100758.02
2023-05-05T15:19:06.510Z,100755.73
2023-05-05T15:21:34.163Z,100757.52
2023-05-05T15:24:01.994Z,100755.26
2023-05-05T15:26:29.679Z,100761.15
2023-05-05T15:28:57.274Z,100758.20
2023-05-05T15:31:24.885Z,100757.98
2023-05-05T15:33:52.734Z,100751.30
2023-05-05T15:36:22.391Z,100752.20
2023-05-05T15:38:50.059Z,100748.71
2023-05-05T15:41:17.670Z,100747.98
2023-05-05T15:43:45.363Z,100740.45
2023-05-05T15:46:12.968Z,100737.30
2023-05-05T15:48:40.644Z,100733.61
2023-05-05T15:51:08.228Z,100732.61
2023-05-05T15:53:35.986Z,100725.67
2023-05-05T15:56:03.721Z,100730.21
2023-05-05T15:58:31.334Z,100727.10
2023-05-05T16:00:59.001Z,100724.36
2023-05-05T16:03:26.861Z,100720.67
2023-05-05T16:05:54.832Z,100714.04
2023-05-05T16:08:22.546Z,100715.16
2023-05-05T16:10:50.241Z,100713.17
2023-05-05T16:13:18.473Z,100713.77
2023-05-05T16:15:46.446Z,100713.91
2023-05-05T16:18:14.228Z,100711.44
2023-05-05T16:20:41.883Z,100705.88
2023-05-05T16:23:09.529Z,100705.55
2023-05-05T16:25:37.166Z,100704.75
2023-05-05T16:28:04.885Z,100707.63
2023-05-05T16:30:32.593Z,100707.45
2023-05-05T16:33:00.307Z,100707.23
2023-05-05T16:35:28.069Z,100703.79
2023-05-05T16:37:56.180Z,100705.73
2023-05-05T16:40:23.914Z,100706.15
2023-05-05T16:42:51.588Z,100709.09
2023-05-05T16:45:19.280Z,100704.70
2023-05-05T16:47:46.988Z,100704.29
2023-05-05T16:50:16.440Z,100703.98
2023-05-05T16:52:44.432Z,100702.05
2023-05-05T16:55:12.407Z,100703.77
2023-05-05T16:57:40.168Z,100708.00
2023-05-05T17:00:09.261Z,100707.36
2023-05-05T17:02:36.849Z,100703.77
2023-05-05T17:05:05.742Z,100704.71
2023-05-05T17:07:33.425Z,100710.80
2023-05-05T17:10:01.208Z,100712.32
2023-05-05T17:12:28.809Z,100719.02
2023-05-05T17:14:56.616Z,100713.89
2023-05-05T17:17:24.353Z,100711.22
2023-05-05T17:19:52.067Z,100713.56
2023-05-05T17:22:19.918Z,100712.57
2023-05-05T17:24:47.519Z,100721.66
2023-05-05T17:27:15.142Z,100723.30
2023-05-05T17:29:43.574Z,100721.27
2023-05-05T17:32:11.491Z,100726.30
2023-05-05T17:34:39.360Z,100725.27
2023-05-05T17:37:06.954Z,100728.95
2023-05-05T17:39:34.665Z,100732.27
2023-05-05T17:42:02.388Z,100737.70
2023-05-05T17:44:31.368Z,100738.88
2023-05-05T17:46:59.308Z,100741.33
2023-05-05T17:49:27.060Z,100744.03
2023-05-05T17:51:54.667Z,100745.91
2023-05-05T17:54:22.290Z,100743.95
2023-05-05T17:56:49.895Z,100744.86
2023-05-05T17:59:17.755Z,100748.80
2023-05-05T18:01:45.525Z,100748.44
2023-05-05T18:04:13.222Z,100751.30
2023-05-05T18:06:40.809Z,100754.99
2023-05-05T18:09:10.914Z,100758.86
2023-05-05T18:11:38.885Z,100760.98
2023-05-05T18:14:06.533Z,100764.05
2023-05-05T18:16:34.143Z,100762.54
2023-05-05T18:19:01.739Z,100764.52
2023-05-05T18:21:29.809Z,100765.11
2023-05-05T18:24:07.657Z,100763.30
2023-05-05T18:26:39.613Z,100770.69
2023-05-05T18:29:07.550Z,100773.20
2023-05-05T18:31:35.205Z,100774.90
2023-05-05T18:34:02.855Z,100775.64
2023-05-05T18:36:31.342Z,100779.42
2023-05-05T18:38:58.934Z,100784.50
2023-05-05T18:41:26.859Z,100785.55
2023-05-05T18:43:54.566Z,100785.63
2023-05-05T18:46:22.472Z,100788.45
2023-05-05T18:48:50.199Z,100788.04
2023-05-05T18:51:17.856Z,100795.42
2023-05-05T18:53:45.499Z,100798.66
2023-05-05T18:56:13.184Z,100800.60
2023-05-05T18:58:41.264Z,100802.92
2023-05-05T19:01:08.923Z,100800.73
2023-05-05T19:03:36.643Z,100805.80
2023-05-05T19:06:08.059Z,100806.27
2023-05-05T19:08:35.786Z,100807.11
2023-05-05T19:11:03.491Z,100808.92
2023-05-05T19:13:31.429Z,100805.84
2023-05-05T19:15:59.462Z,100810.95
2023-05-05T19:18:27.396Z,100813.92
2023-05-05T19:20:55.027Z,100810.34
2023-05-05T19:23:22.668Z,100807.76
2023-05-05T19:25:53.569Z,100812.94
2023-05-05T19:28:21.405Z,100811.05
2023-05-05T19:30:49.105Z,100808.77
2023-05-05T19:33:16.895Z,100812.93
2023-05-05T19:35:44.546Z,100809.98
2023-05-05T19:38:12.538Z,100811.80
2023-05-05T19:40:41.017Z,100810.64
2023-05-05T19:43:09.040Z,100812.66
2023-05-05T19:45:36.969Z,100812.59
2023-05-05T19:48:05.461Z,100810.95
2023-05-05T19:50:33.124Z,100812.99
2023-05-05T19:53:00.891Z,100820.34
2023-05-05T19:55:28.522Z,100826.27
2023-05-05T19:57:56.162Z,100824.29
2023-05-05T20:00:23.818Z,100828.19
2023-05-05T20:02:51.768Z,100828.98
2023-05-05T20:05:19.458Z,100824.29
2023-05-05T20:07:47.260Z,100826.41
2023-05-05T20:10:15.818Z,100828.33
2023-05-05T20:12:48.057Z,100830.91
2023-05-05T20:15:20.457Z,100834.46
2023-05-05T20:17:49.241Z,100834.95
2023-05-05T20:20:21.178Z,100831.52
2023-05-05T20:22:49.448Z,100838.32
2023-05-05T20:25:17.389Z,100833.09
2023-05-05T20:27:45.798Z,100835.14
2023-05-05T20:30:14.372Z,100840.05
2023-05-05T20:32:42.093Z,100842.49
2023-05-05T20:35:10.296Z,100841.74
2023-05-05T20:37:37.923Z,100838.89
2023-05-05T20:40:06.546Z,100842.77
2023-05-05T20:42:34.351Z,100835.05
2023-05-05T20:45:02.313Z,100837.04
2023-05-05T20:47:29.974Z,100843.46
2023-05-05T20:49:58.267Z,100843.67
2023-05-05T20:52:25.861Z,100843.73
2023-05-05T20:54:53.458Z,100842.54
2023-05-05T20:57:21.078Z,100838.45
2023-05-05T20:59:48.663Z,100839.41
2023-05-05T21:02:17.004Z,100837.03
2023-05-05T21:04:44.738Z,100838.44
2023-05-05T21:07:12.337Z,100836.30
2023-05-05T21:09:39.958Z,100833.93
2023-05-05T21:12:07.830Z,100831.58
2023-05-05T21:14:35.759Z,100831.23
2023-05-05T21:17:03.463Z,100829.09
2023-05-05T21:19:31.407Z,100828.98
2023-05-05T21:21:59.294Z,100832.23
2023-05-05T21:24:28.147Z,100828.88
2023-05-05T21:26:56.293Z,100830.51
2023-05-05T21:29:26.835Z,100830.21
2023-05-05T21:31:54.595Z,100830.74
2023-05-05T21:34:22.330Z,100828.33
2023-05-05T21:36:50.142Z,100833.55
2023-05-05T21:39:17.782Z,100835.77
2023-05-05T21:41:45.402Z,100834.98
2023-05-05T21:44:13.397Z,100837.56
2023-05-05T21:46:41.312Z,100839.83
2023-05-05T21:49:16.293Z,100841.68
2023-05-05T21:51:45.598Z,100839.14
2023-05-05T21:54:13.328Z,100841.30
2023-05-05T21:56:41.100Z,100836.04
2023-05-05T21:59:08.756Z,100835.70
2023-05-05T22:01:36.927Z,100831.65
2023-05-05T22:04:05.022Z,100837.08
2023-05-05T22:06:32.858Z,100841.05
2023-05-05T22:09:00.747Z,100840.13
2023-05-05T22:11:28.431Z,100842.76
2023-05-05T22:13:56.404Z,100848.78
2023-05-05T22:16:24.108Z,100845.99
2023-05-05T22:18:52.027Z,100852.06
2023-05-05T22:21:21.201Z,100851.27
2023-05-05T22:23:48.864Z,100850.61
2023-05-05T22:26:16.524Z,100850.93
2023-05-05T22:28:44.165Z,100852.08
2023-05-05T22:31:11.812Z,100849.51
2023-05-05T22:33:39.466Z,100843.80
2023-05-05T22:36:08.970Z,100842.62
2023-05-05T22:38:37.333Z,100838.52
2023-05-05T22:41:06.515Z,100838.72
2023-05-05T22:43:34.157Z,100838.06
2023-05-05T22:46:01.815Z,100837.81
2023-05-05T22:48:29.499Z,100838.63
2023-05-05T22:50:57.335Z,100837.69
2023-05-05T22:53:24.964Z,100837.77
2023-05-05T22:55:52.611Z,100834.38
2023-05-05T22:58:21.087Z,100837.20
2023-05-05T23:00:48.718Z,100831.05
2023-05-05T23:03:16.432Z,100835.98
2023-05-05T23:05:44.093Z,100834.23
2023-05-05T23:08:11.743Z,100832.33
2023-05-05T23:10:39.385Z,100828.88
2023-05-05T23:13:07.156Z,100832.50
2023-05-05T23:15:35.531Z,100826.38
2023-05-05T23:18:03.219Z,100821.98
2023-05-05T23:20:31.096Z,100821.93
2023-05-05T23:22:58.782Z,100820.17
2023-05-05T23:25:26.473Z,100815.94
2023-05-05T23:27:54.586Z,100813.48
2023-05-05T23:30:22.232Z,100811.62
2023-05-05T23:32:49.923Z,100808.49
2023-05-05T23:35:17.753Z,100810.85
2023-05-05T23:37:45.430Z,100809.06
2023-05-05T23:40:13.097Z,100803.31
2023-05-05T23:42:40.777Z,100801.44
2023-05-05T23:45:09.587Z,100800.17
2023-05-05T23:47:37.395Z,100799.66
2023-05-05T23:50:05.861Z,100796.95
2023-05-05T23:52:33.566Z,100799.66
2023-05-05T23:55:01.178Z,100797.04
2023-05-05T23:57:28.836Z,100798.88
2023-05-05T23:59:56.475Z,100795.94
